createdAt,value
2023-03-26T00:01:58.897Z,6.67
2023-03-26T00:04:28.965Z,8.43
2023-03-26T00:06:57.952Z,6.13
2023-03-26T00:09:31.631Z,7.50
2023-03-26T00:12:02.064Z,10.93
2023-03-26T00:14:33.685Z,10.20
2023-03-26T00:17:05.843Z,9.50
2023-03-26T00:19:36.945Z,6.83
2023-03-26T00:22:07.785Z,13.80
2023-03-26T00:24:41.735Z,5.13
2023-03-26T00:27:12.985Z,5.33
2023-03-26T00:29:43.959Z,5.70
2023-03-26T00:32:13.987Z,10.50
2023-03-26T00:34:46.482Z,9.13
2023-03-26T00:37:15.743Z,5.73
2023-03-26T00:39:49.679Z,7.57
2023-03-26T00:42:21.484Z,8.47
2023-03-26T00:44:55.119Z,8.20
2023-03-26T00:47:24.691Z,7.57
2023-03-26T00:49:56.399Z,8.03
2023-03-26T00:52:29.360Z,9.57
2023-03-26T00:55:02.554Z,11.60
2023-03-26T00:57:36.053Z,6.83
2023-03-26T01:00:17.281Z,12.13
2023-03-26T01:02:47.427Z,4.37
2023-03-26T01:05:46.877Z,6.80
2023-03-26T01:08:28.249Z,7.93
2023-03-26T01:11:08.233Z,4.80
2023-03-26T01:13:41.686Z,6.67
2023-03-26T01:16:23.441Z,6.43
2023-03-26T01:18:54.517Z,7.63
2023-03-26T01:21:30.604Z,9.57
2023-03-26T01:24:05.378Z,7.20
2023-03-26T01:27:10.960Z,5.00
2023-03-26T01:29:48.664Z,8.23
2023-03-26T01:32:46.160Z,3.77
2023-03-26T01:35:31.982Z,9.13
2023-03-26T01:38:16.710Z,5.87
2023-03-26T01:40:56.590Z,5.60
2023-03-26T01:43:38.598Z,6.87
2023-03-26T01:46:12.630Z,5.17
2023-03-26T01:48:47.194Z,5.27
2023-03-26T01:51:29.448Z,7.43
2023-03-26T01:54:01.698Z,6.10
2023-03-26T01:56:45.451Z,4.90
2023-03-26T01:59:40.709Z,7.37
2023-03-26T02:02:14.977Z,5.57
2023-03-26T02:04:54.953Z,5.83
2023-03-26T02:07:35.637Z,7.73
2023-03-26T02:10:13.865Z,7.67
2023-03-26T02:12:47.238Z,5.17
2023-03-26T02:15:17.363Z,6.10
2023-03-26T02:17:49.894Z,6.30
2023-03-26T02:20:22.068Z,3.73
2023-03-26T02:22:52.576Z,5.30
2023-03-26T02:25:24.638Z,9.37
2023-03-26T02:27:57.775Z,6.63
2023-03-26T02:30:30.159Z,5.60
2023-03-26T02:33:01.631Z,4.87
2023-03-26T02:35:46.269Z,6.83
2023-03-26T02:38:16.647Z,5.20
2023-03-26T02:40:48.368Z,5.10
2023-03-26T02:43:21.232Z,5.70
2023-03-26T02:45:51.886Z,6.80
2023-03-26T02:48:43.731Z,6.83
2023-03-26T02:51:21.283Z,5.27
2023-03-26T02:53:59.626Z,12.00
2023-03-26T02:56:49.723Z,8.47
2023-03-26T02:59:28.694Z,8.77
2023-03-26T03:02:26.777Z,6.90
2023-03-26T03:05:01.717Z,7.00
2023-03-26T03:07:38.341Z,4.10
2023-03-26T03:10:11.438Z,7.53
2023-03-26T03:13:08.759Z,5.10
2023-03-26T03:15:40.443Z,8.40
2023-03-26T03:18:12.586Z,6.43
2023-03-26T03:20:44.122Z,5.03
2023-03-26T03:23:14.997Z,8.00
2023-03-26T03:25:44.901Z,4.93
2023-03-26T03:28:18.888Z,4.30
2023-03-26T03:30:54.212Z,8.37
2023-03-26T03:33:31.019Z,9.50
2023-03-26T03:36:01.453Z,6.13
2023-03-26T03:38:31.311Z,5.23
2023-03-26T03:41:03.900Z,4.23
2023-03-26T03:43:38.547Z,3.77
2023-03-26T03:46:17.287Z,5.90
2023-03-26T03:48:53.187Z,7.37
2023-03-26T03:51:29.716Z,3.93
2023-03-26T03:54:02.118Z,3.50
2023-03-26T03:56:49.811Z,2.60
2023-03-26T03:59:48.090Z,5.27
2023-03-26T04:02:26.853Z,5.17
2023-03-26T04:05:03.297Z,4.23
2023-03-26T04:07:34.703Z,6.07
2023-03-26T04:10:10.143Z,4.27
2023-03-26T04:13:00.736Z,5.13
2023-03-26T04:16:08.424Z,5.57
2023-03-26T04:18:40.803Z,4.23
2023-03-26T04:21:17.446Z,5.23
2023-03-26T04:23:49.293Z,4.80
2023-03-26T04:26:42.410Z,2.67
2023-03-26T04:29:19.501Z,8.83
2023-03-26T04:32:06.379Z,10.77
2023-03-26T04:34:37.809Z,6.03
2023-03-26T04:37:27.210Z,6.53
2023-03-26T04:40:15.506Z,5.50
2023-03-26T04:43:17.355Z,3.50
2023-03-26T04:46:06.114Z,6.07
2023-03-26T04:48:43.575Z,5.33
2023-03-26T04:51:18.786Z,5.03
2023-03-26T04:53:58.303Z,6.50
2023-03-26T04:56:48.839Z,4.23
2023-03-26T04:59:37.261Z,6.57
2023-03-26T05:02:14.233Z,4.33
2023-03-26T05:04:57.318Z,7.77
2023-03-26T05:07:32.251Z,7.37
2023-03-26T05:10:04.608Z,4.63
2023-03-26T05:12:41.026Z,4.23
2023-03-26T05:15:17.567Z,3.03
2023-03-26T05:18:00.998Z,5.97
2023-03-26T05:20:38.342Z,3.40
2023-03-26T05:23:13.738Z,6.10
2023-03-26T05:25:47.862Z,3.43
2023-03-26T05:28:24.569Z,3.27
2023-03-26T05:30:59.490Z,3.20
2023-03-26T05:33:33.463Z,3.20
2023-03-26T05:36:13.637Z,3.63
2023-03-26T05:38:50.368Z,3.03
2023-03-26T05:41:40.917Z,1.60
2023-03-26T05:44:12.274Z,7.17
2023-03-26T05:46:44.571Z,4.37
2023-03-26T05:49:24.267Z,3.23
2023-03-26T05:51:55.425Z,2.50
2023-03-26T05:54:39.301Z,3.50
2023-03-26T05:57:31.145Z,4.17
2023-03-26T06:00:22.396Z,3.37
2023-03-26T06:02:56.819Z,3.97
2023-03-26T06:05:47.085Z,3.07
2023-03-26T06:08:25.467Z,3.60
2023-03-26T06:11:06.063Z,3.83
2023-03-26T06:13:40.196Z,2.57
2023-03-26T06:16:27.757Z,3.13
2023-03-26T06:19:32.129Z,2.27
2023-03-26T06:22:15.404Z,2.27
2023-03-26T06:25:03.793Z,5.60
2023-03-26T06:27:52.862Z,3.50
2023-03-26T06:30:52.639Z,4.67
2023-03-26T06:33:42.666Z,7.70
2023-03-26T06:36:15.703Z,11.87
2023-03-26T06:38:45.893Z,5.73
2023-03-26T06:41:17.797Z,4.93
2023-03-26T06:44:06.596Z,4.50
2023-03-26T06:56:31.159Z,3.93
2023-03-26T07:54:29.444Z,5.67
2023-03-26T07:57:35.935Z,2.50
2023-03-26T08:00:34.692Z,3.57
2023-03-26T08:03:48.299Z,2.83
2023-03-26T08:06:40.679Z,4.60
2023-03-26T08:09:32.021Z,5.00
2023-03-26T08:12:41.588Z,4.43
2023-03-26T08:15:26.113Z,4.07
2023-03-26T08:18:07.089Z,7.67
2023-03-26T08:20:45.682Z,7.17
2023-03-26T08:23:26.068Z,5.70
2023-03-26T08:26:06.460Z,5.10
2023-03-26T08:29:07.007Z,3.53
2023-03-26T08:31:43.318Z,2.67
2023-03-26T08:34:16.267Z,1.40
2023-03-26T08:36:48.842Z,1.73
2023-03-26T08:39:23.065Z,1.73
2023-03-26T08:43:11.127Z,2.03
2023-03-26T08:46:31.175Z,2.30
2023-03-26T08:50:02.754Z,1.10
2023-03-26T08:53:22.938Z,1.97
2023-03-26T08:55:59.275Z,3.47
2023-03-26T08:59:30.810Z,2.70
2023-03-26T09:02:43.002Z,2.60
2023-03-26T09:06:05.475Z,3.07
2023-03-26T09:09:28.758Z,1.90
2023-03-26T09:13:17.555Z,1.97
2023-03-26T09:16:49.654Z,2.23
2023-03-26T09:20:09.526Z,4.47
2023-03-26T09:23:29.984Z,3.87
2023-03-26T09:26:44.262Z,1.60
2023-03-26T09:30:02.534Z,3.27
2023-03-26T09:33:34.247Z,1.27
2023-03-26T09:36:44.376Z,2.87
2023-03-26T09:39:45.840Z,3.60
2023-03-26T09:42:32.570Z,3.77
2023-03-26T09:45:38.059Z,2.20
2023-03-26T09:48:55.143Z,2.63
2023-03-26T09:51:50.956Z,1.40
2023-03-26T09:54:48.736Z,2.07
2023-03-26T09:57:49.564Z,2.00
2023-03-26T10:00:36.052Z,2.73
2023-03-26T10:03:43.167Z,1.77
2023-03-26T10:06:52.132Z,7.13
2023-03-26T10:09:59.477Z,5.63
2023-03-26T10:12:41.786Z,3.13
2023-03-26T10:15:34.138Z,2.20
2023-03-26T10:18:27.028Z,3.87
2023-03-26T10:21:10.077Z,2.63
2023-03-26T10:24:07.307Z,1.30
2023-03-26T10:27:26.379Z,2.93
2023-03-26T10:30:18.276Z,2.00
2023-03-26T10:33:03.547Z,2.17
2023-03-26T10:36:29.908Z,4.27
2023-03-26T10:39:49.062Z,2.53
2023-03-26T10:42:46.078Z,2.80
2023-03-26T10:45:33.433Z,3.40
2023-03-26T10:48:51.322Z,1.50
2023-03-26T10:51:52.260Z,0.83
2023-03-26T10:54:51.104Z,3.53
2023-03-26T10:57:47.055Z,1.63
2023-03-26T11:00:26.322Z,2.23
2023-03-26T11:03:29.062Z,2.53
2023-03-26T11:06:20.200Z,2.50
2023-03-26T11:09:02.087Z,1.87
2023-03-26T11:11:46.070Z,4.90
2023-03-26T11:14:34.333Z,4.13
2023-03-26T11:17:40.107Z,4.60
2023-03-26T11:20:41.207Z,2.13
2023-03-26T11:23:35.192Z,5.10
2023-03-26T11:26:20.391Z,3.57
2023-03-26T11:29:32.717Z,3.07
2023-03-26T11:32:09.188Z,2.73
2023-03-26T11:34:47.464Z,3.93
2023-03-26T11:37:29.196Z,4.17
2023-03-26T11:40:06.992Z,2.37
2023-03-26T11:42:40.931Z,4.20
2023-03-26T11:45:23.304Z,3.87
2023-03-26T11:50:51.788Z,3.37
2023-03-26T11:53:29.540Z,2.10
2023-03-26T11:56:09.718Z,4.97
2023-03-26T11:58:49.150Z,3.03
2023-03-26T12:01:31.267Z,1.33
2023-03-26T12:04:14.389Z,2.60
2023-03-26T12:06:57.311Z,4.50
2023-03-26T12:09:29.086Z,4.80
2023-03-26T12:12:06.277Z,2.55
2023-03-26T12:14:44.937Z,3.88
2023-03-26T12:17:33.163Z,3.03
2023-03-26T12:20:33.158Z,3.05
2023-03-26T12:23:06.126Z,3.30
2023-03-26T12:25:41.582Z,3.92
2023-03-26T12:28:22.473Z,6.35
2023-03-26T12:31:04.006Z,5.57
2023-03-26T12:33:39.404Z,3.22
2023-03-26T12:36:26.867Z,2.80
2023-03-26T12:39:17.128Z,16.70
2023-03-26T12:44:51.171Z,5.13
2023-03-26T12:44:58.763Z,6.90
2023-03-26T12:48:00.393Z,5.53
2023-03-26T12:50:39.513Z,3.37
2023-03-26T12:53:44.043Z,3.07
2023-03-26T12:56:28.781Z,2.30
2023-03-26T12:59:41.539Z,4.23
2023-03-26T13:02:45.585Z,4.40
2023-03-26T13:05:47.534Z,3.57
2023-03-26T13:08:54.333Z,5.43
2023-03-26T13:11:45.261Z,2.83
2023-03-26T13:14:50.764Z,5.93
2023-03-26T13:17:55.262Z,3.63
2023-03-26T13:20:45.290Z,3.88
2023-03-26T13:23:33.923Z,2.08
2023-03-26T13:26:15.099Z,3.53
2023-03-26T13:28:58.481Z,3.35
2023-03-26T13:31:34.195Z,3.08
2023-03-26T13:34:20.938Z,2.08
2023-03-26T13:37:10.472Z,3.20
2023-03-26T13:39:59.335Z,15.73
2023-03-26T13:42:49.680Z,6.50
2023-03-26T13:45:44.637Z,8.45
2023-03-26T13:48:23.483Z,8.65
2023-03-26T13:54:03.145Z,4.73
2023-03-26T13:56:43.805Z,5.77
2023-03-26T13:59:22.567Z,5.07
2023-03-26T14:02:00.022Z,3.93
2023-03-26T14:04:39.376Z,3.20
2023-03-26T14:07:37.382Z,3.33
2023-03-26T14:10:15.049Z,3.23
2023-03-26T14:12:58.473Z,4.47
2023-03-26T14:15:39.126Z,3.03
2023-03-26T14:18:42.302Z,1.77
2023-03-26T14:25:09.089Z,3.00
2023-03-26T14:28:29.344Z,2.50
2023-03-26T14:34:38.834Z,2.53
2023-03-26T14:37:55.216Z,3.17
2023-03-26T14:40:50.034Z,4.30
2023-03-26T14:44:20.834Z,5.04
2023-03-26T14:47:14.770Z,3.23
2023-03-26T14:50:44.064Z,1.20
2023-03-26T14:53:30.692Z,1.17
2023-03-26T14:57:04.922Z,7.33
2023-03-26T15:00:24.893Z,1.83
2023-03-26T15:03:30.060Z,1.10
2023-03-26T15:06:52.067Z,1.20
2023-03-26T15:10:29.465Z,2.90
2023-03-26T15:13:48.460Z,1.50
2023-03-26T15:17:12.036Z,2.20
2023-03-26T15:20:32.945Z,2.07
2023-03-26T15:23:39.494Z,1.20
2023-03-26T15:27:02.232Z,1.20
2023-03-26T15:30:25.999Z,2.23
2023-03-26T15:33:48.099Z,1.70
2023-03-26T15:37:21.378Z,1.47
2023-03-26T15:40:24.485Z,3.87
2023-03-26T15:43:11.461Z,1.20
2023-03-26T15:45:48.172Z,2.20
2023-03-26T15:49:01.390Z,2.50
2023-03-26T15:51:55.929Z,1.73
2023-03-26T15:54:34.055Z,6.63
2023-03-26T15:57:28.050Z,3.50
2023-03-26T16:00:23.434Z,1.50
2023-03-26T16:03:28.429Z,1.30
2023-03-26T16:06:41.855Z,1.30
2023-03-26T16:09:42.880Z,2.07
2023-03-26T16:12:33.941Z,1.13
2023-03-26T16:15:27.572Z,1.27
2023-03-26T16:18:36.789Z,1.17
2023-03-26T16:22:00.727Z,1.40
2023-03-26T16:24:35.635Z,2.57
2023-03-26T16:27:30.744Z,1.27
2023-03-26T16:30:29.539Z,2.57
2023-03-26T16:33:16.632Z,2.03
2023-03-26T16:36:19.539Z,4.70
2023-03-26T16:39:14.345Z,2.50
2023-03-26T16:42:32.536Z,5.57
2023-03-26T16:45:24.140Z,3.87
2023-03-26T16:48:10.463Z,2.30
2023-03-26T16:50:52.189Z,2.60
2023-03-26T16:53:42.278Z,1.00
2023-03-26T16:56:29.271Z,1.40
2023-03-26T16:59:11.299Z,1.40
2023-03-26T17:01:50.189Z,0.80
2023-03-26T17:04:24.267Z,1.87
2023-03-26T17:07:18.199Z,1.77
2023-03-26T17:10:06.106Z,1.83
2023-03-26T17:12:46.287Z,0.60
2023-03-26T17:15:35.511Z,0.77
2023-03-26T17:18:32.981Z,1.30
2023-03-26T17:21:12.959Z,3.07
2023-03-26T17:24:15.016Z,0.93
2023-03-26T17:27:14.871Z,2.00
2023-03-26T17:30:25.660Z,1.20
2023-03-26T17:33:00.681Z,0.73
2023-03-26T17:35:47.230Z,0.50
2023-03-26T17:39:19.754Z,0.80
2023-03-26T17:42:20.320Z,2.43
2023-03-26T17:44:53.735Z,2.07
2023-03-26T17:47:40.308Z,0.93
2023-03-26T17:50:20.555Z,1.93
2023-03-26T17:52:59.209Z,2.73
2023-03-26T17:55:33.492Z,5.00
2023-03-26T17:58:07.133Z,3.67
2023-03-26T18:00:44.277Z,5.30
2023-03-26T18:03:23.635Z,6.10
2023-03-26T18:06:10.370Z,4.80
2023-03-26T18:09:09.731Z,1.47
2023-03-26T18:12:17.948Z,4.03
2023-03-26T18:15:38.352Z,1.83
2023-03-26T18:18:18.749Z,1.50
2023-03-26T18:20:51.869Z,3.77
2023-03-26T18:23:32.952Z,1.30
2023-03-26T18:26:17.751Z,0.83
2023-03-26T18:28:55.712Z,2.00
2023-03-26T18:31:28.795Z,0.50
2023-03-26T18:34:15.639Z,2.93
2023-03-26T18:36:47.864Z,0.60
2023-03-26T18:39:21.447Z,0.60
2023-03-26T18:41:53.015Z,0.70
2023-03-26T18:44:24.733Z,0.40
2023-03-26T18:46:57.068Z,0.50
2023-03-26T18:49:32.676Z,0.50
2023-03-26T18:52:03.556Z,0.60
2023-03-26T18:54:37.809Z,0.70
2023-03-26T18:57:23.270Z,2.00
2023-03-26T18:59:58.279Z,0.73
2023-03-26T19:02:29.122Z,0.87
2023-03-26T19:05:04.588Z,1.07
2023-03-26T19:07:35.966Z,0.77
2023-03-26T19:10:08.290Z,1.60
2023-03-26T19:12:40.933Z,1.60
2023-03-26T19:15:18.395Z,1.40
2023-03-26T19:17:53.606Z,1.17
2023-03-26T19:20:29.768Z,2.40
2023-03-26T19:23:01.400Z,2.70
2023-03-26T19:25:39.807Z,1.93
2023-03-26T19:28:19.621Z,0.50
2023-03-26T19:30:58.313Z,1.40
2023-03-26T19:33:37.821Z,0.87
2023-03-26T19:36:22.524Z,0.93
2023-03-26T19:38:54.749Z,1.60
2023-03-26T19:41:27.797Z,2.13
2023-03-26T19:44:02.941Z,3.53
2023-03-26T19:46:53.695Z,2.87
2023-03-26T19:49:34.600Z,1.07
2023-03-26T19:52:17.766Z,3.70
2023-03-26T19:54:59.394Z,5.07
2023-03-26T19:57:35.329Z,3.37
2023-03-26T20:00:13.934Z,3.30
2023-03-26T20:02:46.558Z,2.07
2023-03-26T20:05:23.671Z,1.93
2023-03-26T20:08:00.940Z,1.47
2023-03-26T20:10:31.388Z,1.87
2023-03-26T20:13:02.385Z,1.43
2023-03-26T20:15:39.214Z,1.33
2023-03-26T20:18:10.342Z,1.13
2023-03-26T20:20:42.253Z,1.40
2023-03-26T20:23:19.564Z,2.27
2023-03-26T20:25:55.494Z,1.63
2023-03-26T20:28:25.527Z,1.00
2023-03-26T20:30:55.557Z,4.70
2023-03-26T20:33:29.302Z,0.90
2023-03-26T20:36:02.433Z,1.43
2023-03-26T20:38:39.614Z,2.27
2023-03-26T20:41:17.866Z,2.67
2023-03-26T20:43:49.217Z,3.97
2023-03-26T20:46:22.622Z,1.60
2023-03-26T20:48:58.690Z,2.47
2023-03-26T20:51:30.829Z,2.10
2023-03-26T20:54:03.218Z,2.83
2023-03-26T20:56:38.977Z,2.17
2023-03-26T20:59:12.451Z,1.60
2023-03-26T21:01:45.662Z,1.80
2023-03-26T21:04:17.834Z,1.73
2023-03-26T21:06:50.122Z,1.07
2023-03-26T21:09:25.785Z,1.50
2023-03-26T21:12:06.629Z,3.13
2023-03-26T21:14:42.170Z,2.00
2023-03-26T21:17:19.258Z,1.03
2023-03-26T21:19:52.892Z,0.73
2023-03-26T21:22:36.155Z,1.10
2023-03-26T21:25:34.674Z,1.37
2023-03-26T21:28:41.986Z,0.90
2023-03-26T21:31:18.966Z,0.60
2023-03-26T21:33:52.460Z,1.10
2023-03-26T21:36:24.881Z,0.57
2023-03-26T21:38:57.385Z,1.37
2023-03-26T21:41:43.034Z,1.20
2023-03-26T21:44:17.166Z,2.23
2023-03-26T21:46:52.034Z,1.33
2023-03-26T21:49:24.387Z,0.40
2023-03-26T21:51:56.219Z,0.83
2023-03-26T21:54:30.688Z,0.47
2023-03-26T21:57:26.127Z,0.80
2023-03-26T22:00:15.174Z,1.10
2023-03-26T22:03:08.766Z,0.70
2023-03-26T22:05:51.524Z,1.00
2023-03-26T22:08:34.093Z,0.93
2023-03-26T22:11:05.630Z,1.67
2023-03-26T22:13:39.120Z,1.30
2023-03-26T22:16:12.821Z,1.10
2023-03-26T22:18:44.526Z,1.20
2023-03-26T22:21:17.805Z,1.83
2023-03-26T22:23:53.457Z,2.70
2023-03-26T22:26:29.354Z,1.00
2023-03-26T22:29:03.694Z,0.87
2023-03-26T22:31:35.663Z,2.73
2023-03-26T22:34:11.165Z,1.13
2023-03-26T22:36:45.535Z,1.63
2023-03-26T22:39:19.555Z,3.53
2023-03-26T22:41:51.420Z,1.20
2023-03-26T22:44:27.483Z,2.33
2023-03-26T22:47:00.145Z,1.03
2023-03-26T22:49:33.224Z,2.73
2023-03-26T22:52:08.237Z,1.20
2023-03-26T22:54:41.370Z,1.50
2023-03-26T22:57:13.866Z,1.13
2023-03-26T22:59:46.314Z,1.40
2023-03-26T23:02:19.244Z,2.13
2023-03-26T23:04:54.049Z,1.13
2023-03-26T23:07:28.206Z,1.10
2023-03-26T23:09:58.185Z,2.07
2023-03-26T23:12:30.895Z,0.90
2023-03-26T23:15:06.443Z,0.70
2023-03-26T23:17:39.988Z,1.00
2023-03-26T23:20:15.647Z,0.57
2023-03-26T23:22:48.675Z,0.53
2023-03-26T23:25:20.973Z,0.80
2023-03-26T23:27:52.452Z,1.17
2023-03-26T23:30:26.731Z,1.17
2023-03-26T23:32:59.270Z,0.97
2023-03-26T23:35:31.854Z,0.60
2023-03-26T23:38:02.540Z,0.90
2023-03-26T23:40:35.391Z,0.70
2023-03-26T23:43:08.193Z,0.43
2023-03-26T23:45:42.686Z,0.97
2023-03-26T23:48:14.634Z,0.50
2023-03-26T23:50:48.618Z,0.93
2023-03-26T23:53:19.514Z,0.50
2023-03-26T23:55:52.560Z,0.57
2023-03-26T23:58:25.521Z,0.80
